createdAt,value
2022-08-11T00:00:03.188Z,61.63
2022-08-11T00:01:03.221Z,61.43
2022-08-11T00:02:03.190Z,61.63
2022-08-11T00:03:03.222Z,61.73
2022-08-11T00:04:03.169Z,61.93
2022-08-11T00:05:03.165Z,61.83
2022-08-11T00:06:03.152Z,61.83
2022-08-11T00:07:03.150Z,62.13
2022-08-11T00:08:03.140Z,61.73
2022-08-11T00:09:03.127Z,61.96
2022-08-11T00:10:03.102Z,62.16
2022-08-11T00:11:03.115Z,62.16
2022-08-11T00:12:03.095Z,62.16
2022-08-11T00:13:03.106Z,62.26
2022-08-11T00:14:03.087Z,62.37
2022-08-11T00:15:03.081Z,62.26
2022-08-11T00:16:03.069Z,62.06
2022-08-11T00:17:03.045Z,62.26
2022-08-11T00:18:03.049Z,62.26
2022-08-11T00:19:03.054Z,62.37
2022-08-11T00:20:13.672Z,62.37
2022-08-11T00:21:03.016Z,62.37
2022-08-11T00:22:06.099Z,62.26
2022-08-11T00:23:02.996Z,62.46
2022-08-11T00:24:03.000Z,62.26
2022-08-11T00:25:03.125Z,62.46
2022-08-11T00:26:02.974Z,62.46
2022-08-11T00:27:02.973Z,62.37
2022-08-11T00:28:02.948Z,62.57
2022-08-11T00:29:02.949Z,62.37
2022-08-11T00:30:02.947Z,62.37
2022-08-11T00:31:04.245Z,62.49
2022-08-11T00:32:02.923Z,62.49
2022-08-11T00:33:02.923Z,62.49
2022-08-11T00:34:02.904Z,62.60
2022-08-11T00:35:54.865Z,62.60
2022-08-11T00:36:02.895Z,62.70
2022-08-11T00:37:02.891Z,62.70
2022-08-11T00:38:02.875Z,62.70
2022-08-11T00:39:02.860Z,62.60
2022-08-11T00:40:02.922Z,62.49
2022-08-11T00:41:02.838Z,62.70
2022-08-11T00:42:02.824Z,62.80
2022-08-11T00:43:02.857Z,62.80
2022-08-11T00:44:02.857Z,62.80
2022-08-11T00:45:02.808Z,63.10
2022-08-11T00:46:02.799Z,63.00
2022-08-11T00:47:02.788Z,63.20
2022-08-11T00:48:02.776Z,63.20
2022-08-11T00:49:02.803Z,63.20
2022-08-11T00:50:02.760Z,63.10
2022-08-11T00:51:02.759Z,63.10
2022-08-11T00:52:05.612Z,63.20
2022-08-11T00:53:02.737Z,63.33
2022-08-11T00:54:02.719Z,63.43
2022-08-11T00:55:02.730Z,63.43
2022-08-11T00:56:02.700Z,63.33
2022-08-11T00:57:02.714Z,63.43
2022-08-11T00:58:02.704Z,63.33
2022-08-11T00:59:02.695Z,63.53
2022-08-11T01:00:03.657Z,63.53
2022-08-11T01:01:02.744Z,63.64
2022-08-11T01:02:02.667Z,63.64
2022-08-11T01:03:02.643Z,63.64
2022-08-11T01:04:02.632Z,63.93
2022-08-11T01:05:02.646Z,63.84
2022-08-11T01:06:02.993Z,63.84
2022-08-11T01:07:02.635Z,63.73
2022-08-11T01:08:03.651Z,63.84
2022-08-11T01:09:02.595Z,63.93
2022-08-11T01:10:06.981Z,63.84
2022-08-11T01:11:02.579Z,63.84
2022-08-11T01:12:02.565Z,63.84
2022-08-11T01:13:02.588Z,63.73
2022-08-11T01:14:02.551Z,63.73
2022-08-11T01:15:02.565Z,63.73
2022-08-11T01:16:02.541Z,63.64
2022-08-11T01:17:02.543Z,63.64
2022-08-11T01:18:02.525Z,63.64
2022-08-11T01:19:02.530Z,63.64
2022-08-11T01:20:47.970Z,63.43
2022-08-11T01:21:02.504Z,63.73
2022-08-11T01:22:02.481Z,63.84
2022-08-11T01:23:02.491Z,63.84
2022-08-11T01:24:02.475Z,63.53
2022-08-11T01:25:02.576Z,63.64
2022-08-11T01:26:02.445Z,64.04
2022-08-11T01:27:02.443Z,63.93
2022-08-11T01:28:02.445Z,64.07
2022-08-11T01:29:02.439Z,63.87
2022-08-11T01:30:02.453Z,64.07
2022-08-11T01:31:02.431Z,64.27
2022-08-11T01:32:02.394Z,64.07
2022-08-11T01:33:02.398Z,64.17
2022-08-11T01:34:02.388Z,63.96
2022-08-11T01:35:02.365Z,64.07
2022-08-11T01:36:02.369Z,64.07
2022-08-11T01:37:02.379Z,64.27
2022-08-11T01:38:02.336Z,64.17
2022-08-11T01:39:02.343Z,64.17
2022-08-11T01:40:02.330Z,64.17
2022-08-11T01:41:02.333Z,63.96
2022-08-11T01:42:02.308Z,63.96
2022-08-11T01:43:02.332Z,64.07
2022-08-11T01:44:02.288Z,64.07
2022-08-11T01:45:02.281Z,64.17
2022-08-11T01:46:02.283Z,64.17
2022-08-11T01:47:02.274Z,64.17
2022-08-11T01:48:02.263Z,64.27
2022-08-11T01:49:02.271Z,64.37
2022-08-11T01:50:08.488Z,64.27
2022-08-11T01:51:02.244Z,64.40
2022-08-11T01:52:02.226Z,64.40
2022-08-11T01:53:02.225Z,64.50
2022-08-11T01:54:02.200Z,64.61
2022-08-11T01:55:02.227Z,64.47
2022-08-11T01:56:02.197Z,64.50
2022-08-11T01:57:02.187Z,64.50
2022-08-11T01:58:02.166Z,64.50
2022-08-11T01:59:02.163Z,64.70
2022-08-11T02:00:02.145Z,64.70
2022-08-11T02:01:02.217Z,64.81
2022-08-11T02:02:02.134Z,64.61
2022-08-11T02:03:02.126Z,64.70
2022-08-11T02:04:02.140Z,64.50
2022-08-11T02:05:02.108Z,64.81
2022-08-11T02:06:02.116Z,64.70
2022-08-11T02:07:02.121Z,64.81
2022-08-11T02:08:02.100Z,64.90
2022-08-11T02:09:02.083Z,64.90
2022-08-11T02:10:02.080Z,64.70
2022-08-11T02:11:02.062Z,65.11
2022-08-11T02:12:02.586Z,65.01
2022-08-11T02:13:02.048Z,65.01
2022-08-11T02:14:02.046Z,65.01
2022-08-11T02:15:05.606Z,65.01
2022-08-11T02:16:02.011Z,65.01
2022-08-11T02:17:02.003Z,65.11
2022-08-11T02:18:02.002Z,65.01
2022-08-11T02:19:02.002Z,65.01
2022-08-11T02:20:01.986Z,65.11
2022-08-11T02:21:01.976Z,65.21
2022-08-11T02:22:01.962Z,65.21
2022-08-11T02:23:01.960Z,65.24
2022-08-11T02:24:06.931Z,65.34
2022-08-11T02:25:01.957Z,65.24
2022-08-11T02:26:01.925Z,65.54
2022-08-11T02:27:01.919Z,65.24
2022-08-11T02:28:01.919Z,65.44
2022-08-11T02:29:01.910Z,65.34
2022-08-11T02:30:01.887Z,65.44
2022-08-11T02:31:01.907Z,65.34
2022-08-11T02:32:24.779Z,65.34
2022-08-11T02:33:01.858Z,65.34
2022-08-11T02:34:01.865Z,65.34
2022-08-11T02:35:01.839Z,65.34
2022-08-11T02:36:01.839Z,65.34
2022-08-11T02:37:01.863Z,65.34
2022-08-11T02:38:01.831Z,65.14
2022-08-11T02:39:01.817Z,65.14
2022-08-11T02:40:01.801Z,65.14
2022-08-11T02:41:01.790Z,65.44
2022-08-11T02:42:01.784Z,65.44
2022-08-11T02:43:01.801Z,65.34
2022-08-11T02:44:01.763Z,65.24
2022-08-11T02:45:01.773Z,65.24
2022-08-11T02:46:01.744Z,65.24
2022-08-11T02:47:01.746Z,65.34
2022-08-11T02:48:01.737Z,65.34
2022-08-11T02:49:01.749Z,65.24
2022-08-11T02:50:06.661Z,65.07
2022-08-11T02:51:01.715Z,65.04
2022-08-11T02:52:01.709Z,65.27
2022-08-11T02:53:01.690Z,65.27
2022-08-11T02:54:01.689Z,65.47
2022-08-11T02:55:01.783Z,65.57
2022-08-11T02:56:01.656Z,65.67
2022-08-11T02:57:01.648Z,65.78
2022-08-11T02:58:01.651Z,65.78
2022-08-11T02:59:01.643Z,65.78
2022-08-11T03:00:01.642Z,66.08
2022-08-11T03:01:01.628Z,65.88
2022-08-11T03:02:05.397Z,65.78
2022-08-11T03:03:01.589Z,65.88
2022-08-11T03:04:01.590Z,65.98
2022-08-11T03:05:01.574Z,66.08
2022-08-11T03:06:01.572Z,66.28
2022-08-11T03:07:01.573Z,66.08
2022-08-11T03:08:01.565Z,65.98
2022-08-11T03:09:01.541Z,66.08
2022-08-11T03:10:01.534Z,66.28
2022-08-11T03:11:01.539Z,66.28
2022-08-11T03:12:01.539Z,66.18
2022-08-11T03:13:01.516Z,66.28
2022-08-11T03:14:01.494Z,66.28
2022-08-11T03:15:01.484Z,66.28
2022-08-11T03:16:01.474Z,66.28
2022-08-11T03:17:01.465Z,66.38
2022-08-11T03:18:01.455Z,66.28
2022-08-11T03:19:01.457Z,66.48
2022-08-11T03:20:01.461Z,66.58
2022-08-11T03:21:01.426Z,66.28
2022-08-11T03:22:03.171Z,66.48
2022-08-11T03:23:01.420Z,66.48
2022-08-11T03:24:01.421Z,66.48
2022-08-11T03:25:01.413Z,66.38
2022-08-11T03:26:01.392Z,66.38
2022-08-11T03:27:01.386Z,66.69
2022-08-11T03:28:02.667Z,66.48
2022-08-11T03:29:01.375Z,66.11
2022-08-11T03:30:01.351Z,66.52
2022-08-11T03:31:01.374Z,66.61
2022-08-11T03:32:01.352Z,66.52
2022-08-11T03:33:01.334Z,66.61
2022-08-11T03:34:06.039Z,66.52
2022-08-11T03:35:01.304Z,66.72
2022-08-11T03:36:01.302Z,66.82
2022-08-11T03:37:16.084Z,66.92
2022-08-11T03:38:01.286Z,66.61
2022-08-11T03:39:01.271Z,66.82
2022-08-11T03:40:01.331Z,66.82
2022-08-11T03:41:01.254Z,66.52
2022-08-11T03:42:05.911Z,66.52
2022-08-11T03:43:01.255Z,66.61
2022-08-11T03:44:01.226Z,67.02
2022-08-11T03:45:01.237Z,66.82
2022-08-11T03:46:01.229Z,67.02
2022-08-11T03:47:01.210Z,66.82
2022-08-11T03:48:01.196Z,66.72
2022-08-11T03:49:01.217Z,66.92
2022-08-11T03:50:01.191Z,67.02
2022-08-11T03:51:01.158Z,67.02
2022-08-11T03:52:01.172Z,67.02
2022-08-11T03:53:01.153Z,67.12
2022-08-11T03:54:01.139Z,67.05
2022-08-11T03:55:01.145Z,67.15
2022-08-11T03:56:01.119Z,67.15
2022-08-11T03:57:01.110Z,67.32
2022-08-11T03:58:01.115Z,67.25
2022-08-11T03:59:01.091Z,67.46
2022-08-11T04:00:01.091Z,67.15
2022-08-11T04:01:01.102Z,67.35
2022-08-11T04:02:01.120Z,67.35
2022-08-11T04:03:01.054Z,67.32
2022-08-11T04:04:01.052Z,67.32
2022-08-11T04:05:01.037Z,67.35
2022-08-11T04:06:01.034Z,67.46
2022-08-11T04:07:01.027Z,67.63
2022-08-11T04:08:01.026Z,67.63
2022-08-11T04:09:00.995Z,67.46
2022-08-11T04:10:01.008Z,67.46
2022-08-11T04:11:00.991Z,67.46
2022-08-11T04:12:00.989Z,67.46
2022-08-11T04:13:00.978Z,67.46
2022-08-11T04:14:00.957Z,67.46
2022-08-11T04:15:00.946Z,67.46
2022-08-11T04:16:10.780Z,67.55
2022-08-11T04:17:00.941Z,67.55
2022-08-11T04:18:00.931Z,67.66
2022-08-11T04:19:00.928Z,67.66
2022-08-11T04:20:00.899Z,67.55
2022-08-11T04:21:00.903Z,67.66
2022-08-11T04:22:00.879Z,67.76
2022-08-11T04:23:00.871Z,67.76
2022-08-11T04:24:34.813Z,67.76
2022-08-11T04:25:00.874Z,67.76
2022-08-11T04:26:00.850Z,67.86
2022-08-11T04:27:00.846Z,67.86
2022-08-11T04:28:00.832Z,67.96
2022-08-11T04:29:00.826Z,67.96
2022-08-11T04:30:03.002Z,67.66
2022-08-11T04:31:00.834Z,67.96
2022-08-11T04:32:00.796Z,67.25
2022-08-11T04:33:00.784Z,67.86
2022-08-11T04:34:00.775Z,67.86
2022-08-11T04:35:00.779Z,68.06
2022-08-11T04:36:00.755Z,68.06
2022-08-11T04:37:00.770Z,67.96
2022-08-11T04:38:00.756Z,67.96
2022-08-11T04:39:00.726Z,68.06
2022-08-11T04:40:00.718Z,67.86
2022-08-11T04:41:00.707Z,67.96
2022-08-11T04:42:00.718Z,68.06
2022-08-11T04:43:00.711Z,68.06
2022-08-11T04:44:02.719Z,68.16
2022-08-11T04:45:00.672Z,68.06
2022-08-11T04:46:00.669Z,67.86
2022-08-11T04:47:00.649Z,67.96
2022-08-11T04:48:04.047Z,67.96
2022-08-11T04:49:00.673Z,67.76
2022-08-11T04:50:00.644Z,67.46
2022-08-11T04:51:09.280Z,68.06
2022-08-11T04:52:00.631Z,68.06
2022-08-11T04:53:00.599Z,68.16
2022-08-11T04:54:00.606Z,68.16
2022-08-11T04:55:00.616Z,67.55
2022-08-11T04:56:00.586Z,67.86
2022-08-11T04:57:00.564Z,68.16
2022-08-11T04:58:00.568Z,68.26
2022-08-11T04:59:00.557Z,68.26
2022-08-11T05:00:00.555Z,68.26
2022-08-11T05:01:00.558Z,68.16
2022-08-11T05:02:00.599Z,68.47
2022-08-11T05:03:00.521Z,68.37
2022-08-11T05:04:00.505Z,68.57
2022-08-11T05:05:00.493Z,68.77
2022-08-11T05:06:00.487Z,68.77
2022-08-11T05:07:00.861Z,68.47
2022-08-11T05:08:00.481Z,68.67
2022-08-11T05:09:00.469Z,68.37
2022-08-11T05:10:00.448Z,68.47
2022-08-11T05:11:00.451Z,68.16
2022-08-11T05:12:01.860Z,68.97
2022-08-11T05:13:00.430Z,68.94
2022-08-11T05:14:00.418Z,69.45
2022-08-11T05:15:00.399Z,69.24
2022-08-11T05:16:00.414Z,69.34
2022-08-11T05:17:00.381Z,69.45
2022-08-11T05:18:00.383Z,69.65
2022-08-11T05:19:00.383Z,69.65
2022-08-11T05:20:00.362Z,69.55
2022-08-11T05:21:04.464Z,69.75
2022-08-11T05:22:00.357Z,69.65
2022-08-11T05:23:00.333Z,69.65
2022-08-11T05:24:00.332Z,69.85
2022-08-11T05:25:00.334Z,69.75
2022-08-11T05:26:45.021Z,69.34
2022-08-11T05:27:00.308Z,69.34
2022-08-11T05:28:00.307Z,69.21
2022-08-11T05:29:00.282Z,69.11
2022-08-11T05:30:00.281Z,69.01
2022-08-11T05:31:00.267Z,69.01
2022-08-11T05:32:00.270Z,68.91
2022-08-11T05:33:02.225Z,68.80
2022-08-11T05:34:00.250Z,69.01
2022-08-11T05:35:00.237Z,68.91
2022-08-11T05:36:03.166Z,68.80
2022-08-11T05:37:23.773Z,68.80
2022-08-11T05:38:00.212Z,68.80
2022-08-11T05:39:00.188Z,68.80
2022-08-11T05:40:00.348Z,68.80
2022-08-11T05:41:00.401Z,68.60
2022-08-11T05:42:00.171Z,68.91
2022-08-11T05:43:00.170Z,68.77
2022-08-11T05:44:21.369Z,68.87
2022-08-11T05:45:00.153Z,69.38
2022-08-11T05:46:04.733Z,68.98
2022-08-11T05:47:00.137Z,69.04
2022-08-11T05:48:00.112Z,69.04
2022-08-11T05:49:00.126Z,69.24
2022-08-11T05:50:00.127Z,69.11
2022-08-11T05:51:00.097Z,69.21
2022-08-11T05:52:05.594Z,69.28
2022-08-11T05:53:00.078Z,69.08
2022-08-11T05:54:00.078Z,69.05
2022-08-11T05:55:00.103Z,69.15
2022-08-11T05:56:02.822Z,69.12
2022-08-11T05:57:00.061Z,69.21
2022-08-11T05:58:00.031Z,68.98
2022-08-11T05:59:00.041Z,68.95
2022-08-11T06:00:00.016Z,69.25
2022-08-11T06:01:00.007Z,68.91
2022-08-11T06:02:00.053Z,69.29
2022-08-11T06:02:59.992Z,68.88
2022-08-11T06:03:59.994Z,68.65
2022-08-11T06:04:59.974Z,68.45
2022-08-11T06:05:59.973Z,68.12
2022-08-11T06:06:59.963Z,68.02
2022-08-11T06:07:59.950Z,68.08
2022-08-11T06:08:59.933Z,67.68
2022-08-11T06:09:59.924Z,67.88
2022-08-11T06:10:59.925Z,67.45
2022-08-11T06:11:59.906Z,67.14
2022-08-11T06:12:59.917Z,66.05
2022-08-11T06:13:59.893Z,66.35
2022-08-11T06:14:59.882Z,65.81
2022-08-11T06:16:03.554Z,65.91
2022-08-11T06:16:59.864Z,65.81
2022-08-11T06:17:59.868Z,65.71
2022-08-11T06:18:59.888Z,65.81
2022-08-11T06:20:06.090Z,65.91
2022-08-11T06:20:59.838Z,65.41
2022-08-11T06:21:59.829Z,65.31
2022-08-11T06:22:59.806Z,65.61
2022-08-11T06:23:59.810Z,65.51
2022-08-11T06:24:59.806Z,65.51
2022-08-11T06:25:59.778Z,65.48
2022-08-11T06:27:12.278Z,65.58
2022-08-11T06:27:59.772Z,65.58
2022-08-11T06:28:59.760Z,65.18
2022-08-11T06:29:59.761Z,65.18
2022-08-11T06:30:59.761Z,64.98
2022-08-11T06:31:59.742Z,64.75
2022-08-11T06:32:59.736Z,64.15
2022-08-11T06:33:59.725Z,63.95
2022-08-11T06:34:59.723Z,64.25
2022-08-11T06:35:59.691Z,63.84
2022-08-11T06:36:59.704Z,63.95
2022-08-11T06:37:59.692Z,64.15
2022-08-11T06:38:59.672Z,63.95
2022-08-11T06:39:59.731Z,64.04
2022-08-11T06:40:59.653Z,63.84
2022-08-11T06:41:59.659Z,64.04
2022-08-11T06:42:59.665Z,64.25
2022-08-11T06:44:03.352Z,64.34
2022-08-11T06:44:59.636Z,64.42
2022-08-11T06:45:59.619Z,63.61
2022-08-11T06:46:59.621Z,63.71
2022-08-11T06:47:59.601Z,63.61
2022-08-11T06:48:59.597Z,63.42
2022-08-11T06:49:59.577Z,63.42
2022-08-11T06:50:59.584Z,63.81
2022-08-11T06:52:01.671Z,63.11
2022-08-11T06:52:59.561Z,62.71
2022-08-11T06:54:04.501Z,62.21
2022-08-11T06:54:59.540Z,62.11
2022-08-11T06:55:59.520Z,62.31
2022-08-11T06:57:28.491Z,62.11
2022-08-11T06:57:59.500Z,62.41
2022-08-11T06:58:59.490Z,62.21
2022-08-11T06:59:59.502Z,62.51
2022-08-11T07:00:59.497Z,62.11
2022-08-11T07:01:59.528Z,62.51
2022-08-11T07:02:59.463Z,62.92
2022-08-11T07:03:59.452Z,62.78
2022-08-11T07:04:59.457Z,62.68
2022-08-11T07:05:59.432Z,62.48
2022-08-11T07:06:59.524Z,62.38
2022-08-11T07:07:59.427Z,62.68
2022-08-11T07:08:59.417Z,62.78
2022-08-11T07:09:59.409Z,62.78
2022-08-11T07:10:59.406Z,62.48
2022-08-11T07:11:59.390Z,62.18
2022-08-11T07:12:59.398Z,62.15
2022-08-11T07:13:59.372Z,61.25
2022-08-11T07:15:00.633Z,61.75
2022-08-11T07:16:11.336Z,61.85
2022-08-11T07:16:59.338Z,62.45
2022-08-11T07:17:59.329Z,60.95
2022-08-11T07:18:59.422Z,61.55
2022-08-11T07:19:59.324Z,60.75
2022-08-11T07:21:02.096Z,61.15
2022-08-11T07:22:02.465Z,61.45
2022-08-11T07:22:59.291Z,60.95
2022-08-11T07:23:59.287Z,60.75
2022-08-11T07:25:02.348Z,60.75
2022-08-11T07:25:59.261Z,60.15
2022-08-11T07:26:59.253Z,60.75
2022-08-11T07:27:59.249Z,61.25
2022-08-11T07:28:59.262Z,61.55
2022-08-11T07:29:59.223Z,61.55
2022-08-11T07:30:59.238Z,60.45
2022-08-11T07:31:59.216Z,60.65
2022-08-11T07:32:59.216Z,60.95
2022-08-11T07:34:05.303Z,61.05
2022-08-11T07:34:59.200Z,61.22
2022-08-11T07:35:59.187Z,61.02
2022-08-11T07:36:59.177Z,60.52
2022-08-11T07:38:01.614Z,60.62
2022-08-11T07:38:59.161Z,61.22
2022-08-11T07:39:59.196Z,61.32
2022-08-11T07:40:59.142Z,61.52
2022-08-11T07:41:59.133Z,61.40
2022-08-11T07:42:59.132Z,61.49
2022-08-11T07:43:59.115Z,61.49
2022-08-11T07:44:59.090Z,61.69
2022-08-11T07:45:59.094Z,61.09
2022-08-11T07:46:59.081Z,61.46
2022-08-11T07:47:59.061Z,61.36
2022-08-11T07:48:59.084Z,60.57
2022-08-11T07:49:59.059Z,60.46
2022-08-11T07:50:59.056Z,60.16
2022-08-11T07:51:59.033Z,60.06
2022-08-11T07:52:59.050Z,60.46
2022-08-11T07:54:07.658Z,59.66
2022-08-11T07:54:59.029Z,59.47
2022-08-11T07:55:58.994Z,59.97
2022-08-11T07:57:09.057Z,59.74
2022-08-11T07:58:16.131Z,59.64
2022-08-11T07:59:06.314Z,59.94
2022-08-11T08:00:04.323Z,59.04
2022-08-11T08:01:01.085Z,58.73
2022-08-11T08:01:59.016Z,59.14
2022-08-11T08:02:58.951Z,59.83
2022-08-11T08:03:58.933Z,59.94
2022-08-11T08:04:58.919Z,59.53
2022-08-11T08:05:58.914Z,59.23
2022-08-11T08:06:58.911Z,58.34
2022-08-11T08:07:58.905Z,59.04
2022-08-11T08:08:58.881Z,59.23
2022-08-11T08:09:58.885Z,59.53
2022-08-11T08:10:58.863Z,59.41
2022-08-11T08:11:58.867Z,59.70
2022-08-11T08:12:58.866Z,59.81
2022-08-11T08:13:58.848Z,59.81
2022-08-11T08:14:58.833Z,59.51
2022-08-11T08:15:58.815Z,60.11
2022-08-11T08:16:58.829Z,59.88
2022-08-11T08:18:20.603Z,58.98
2022-08-11T08:18:58.907Z,59.08
2022-08-11T08:19:58.799Z,58.28
2022-08-11T08:20:58.776Z,58.68
2022-08-11T08:22:04.328Z,58.58
2022-08-11T08:22:58.770Z,58.38
2022-08-11T08:23:58.749Z,58.88
2022-08-11T08:24:58.788Z,58.38
2022-08-11T08:25:58.728Z,58.88
2022-08-11T08:26:58.729Z,59.18
2022-08-11T08:27:58.712Z,58.58
2022-08-11T08:28:58.739Z,58.78
2022-08-11T08:29:58.704Z,59.58
2022-08-11T08:30:58.714Z,58.78
2022-08-11T08:31:58.695Z,58.75
2022-08-11T08:32:58.686Z,58.95
2022-08-11T08:33:58.663Z,58.95
2022-08-11T08:34:58.665Z,58.65
2022-08-11T08:35:58.666Z,58.95
2022-08-11T08:36:58.664Z,58.25
2022-08-11T08:37:58.689Z,57.95
2022-08-11T08:38:58.625Z,57.86
2022-08-11T08:39:58.725Z,58.06
2022-08-11T08:40:58.620Z,58.25
2022-08-11T08:41:58.628Z,57.76
2022-08-11T08:42:58.619Z,57.86
2022-08-11T08:44:15.232Z,58.06
2022-08-11T08:44:58.581Z,57.33
2022-08-11T08:45:58.558Z,57.13
2022-08-11T08:46:58.562Z,57.15
2022-08-11T08:47:58.555Z,57.56
2022-08-11T08:48:58.549Z,57.73
2022-08-11T08:49:58.542Z,58.53
2022-08-11T08:50:58.518Z,59.12
2022-08-11T08:52:21.107Z,59.12
2022-08-11T08:52:58.514Z,58.12
2022-08-11T08:53:58.653Z,58.03
2022-08-11T08:54:58.493Z,58.23
2022-08-11T08:55:58.470Z,57.82
2022-08-11T08:56:58.476Z,57.90
2022-08-11T08:57:58.453Z,57.30
2022-08-11T08:58:58.443Z,57.60
2022-08-11T08:59:58.435Z,57.60
2022-08-11T09:00:58.513Z,57.80
2022-08-11T09:01:58.414Z,58.29
2022-08-11T09:02:58.414Z,58.70
2022-08-11T09:04:06.943Z,58.59
2022-08-11T09:04:58.397Z,58.87
2022-08-11T09:05:58.391Z,57.97
2022-08-11T09:06:58.401Z,57.67
2022-08-11T09:07:58.363Z,58.47
2022-08-11T09:08:58.371Z,58.97
2022-08-11T09:09:58.361Z,58.87
2022-08-11T09:10:58.353Z,58.94
2022-08-11T09:11:58.344Z,58.84
2022-08-11T09:12:58.351Z,58.84
2022-08-11T09:14:05.752Z,58.14
2022-08-11T09:14:58.324Z,58.54
2022-08-11T09:15:58.304Z,58.84
2022-08-11T09:16:58.292Z,58.61
2022-08-11T09:17:58.286Z,57.82
2022-08-11T09:18:58.318Z,57.62
2022-08-11T09:19:58.275Z,57.42
2022-08-11T09:20:58.267Z,57.82
2022-08-11T09:21:58.257Z,58.22
2022-08-11T09:23:41.292Z,57.62
2022-08-11T09:24:22.076Z,57.32
2022-08-11T09:24:58.357Z,57.52
2022-08-11T09:25:58.219Z,57.42
2022-08-11T09:26:58.211Z,57.62
2022-08-11T09:27:58.200Z,57.59
2022-08-11T09:28:58.200Z,57.79
2022-08-11T09:29:58.183Z,58.18
2022-08-11T09:30:58.192Z,58.39
2022-08-11T09:31:58.217Z,58.39
2022-08-11T09:32:58.162Z,58.18
2022-08-11T09:33:58.153Z,58.39
2022-08-11T09:34:58.150Z,58.28
2022-08-11T09:35:58.134Z,58.48
2022-08-11T09:36:58.155Z,58.36
2022-08-11T09:37:58.318Z,58.45
2022-08-11T09:38:58.101Z,58.45
2022-08-11T09:39:58.125Z,57.66
2022-08-11T09:40:58.083Z,57.86
2022-08-11T09:42:03.131Z,57.36
2022-08-11T09:42:58.099Z,56.96
2022-08-11T09:44:00.982Z,57.76
2022-08-11T09:44:58.052Z,58.26
2022-08-11T09:45:58.047Z,57.73
2022-08-11T09:46:58.048Z,56.24
2022-08-11T09:47:58.016Z,56.04
2022-08-11T09:48:58.050Z,56.87
2022-08-11T09:49:58.009Z,57.53
2022-08-11T09:50:58.009Z,57.34
2022-08-11T09:52:02.181Z,57.14
2022-08-11T09:53:35.754Z,56.77
2022-08-11T09:54:03.436Z,56.84
2022-08-11T09:54:57.999Z,57.34
2022-08-11T09:55:57.954Z,57.53
2022-08-11T09:57:02.026Z,57.34
2022-08-11T09:57:57.931Z,57.43
2022-08-11T09:58:57.931Z,57.43
2022-08-11T10:00:12.720Z,57.24
2022-08-11T10:00:57.992Z,56.84
2022-08-11T10:01:57.905Z,56.44
2022-08-11T10:02:57.895Z,56.54
2022-08-11T10:03:57.880Z,55.55
2022-08-11T10:04:57.887Z,56.14
2022-08-11T10:05:57.854Z,56.24
2022-08-11T10:06:57.880Z,55.85
2022-08-11T10:07:57.843Z,56.04
2022-08-11T10:08:57.860Z,55.85
2022-08-11T10:09:57.825Z,55.44
2022-08-11T10:10:57.825Z,56.24
2022-08-11T10:11:58.436Z,56.14
2022-08-11T10:12:57.827Z,55.94
2022-08-11T10:14:33.387Z,56.44
2022-08-11T10:14:57.800Z,56.24
2022-08-11T10:16:00.186Z,56.24
2022-08-11T10:16:57.769Z,56.54
2022-08-11T10:17:57.758Z,56.74
2022-08-11T10:18:57.770Z,56.54
2022-08-11T10:20:05.465Z,56.74
2022-08-11T10:20:57.731Z,56.84
2022-08-11T10:21:57.736Z,55.94
2022-08-11T10:22:57.728Z,56.34
2022-08-11T10:24:00.965Z,56.04
2022-08-11T10:24:57.737Z,56.04
2022-08-11T10:25:57.691Z,55.55
2022-08-11T10:26:57.678Z,55.35
2022-08-11T10:28:30.648Z,55.35
2022-08-11T10:29:12.659Z,55.55
2022-08-11T10:29:57.660Z,56.14
2022-08-11T10:30:57.678Z,56.24
2022-08-11T10:31:59.451Z,56.54
2022-08-11T10:33:00.095Z,55.74
2022-08-11T10:33:59.640Z,54.75
2022-08-11T10:34:58.051Z,54.55
2022-08-11T10:35:57.611Z,55.55
2022-08-11T10:36:57.621Z,56.04
2022-08-11T10:38:15.742Z,56.54
2022-08-11T10:38:57.583Z,56.44
2022-08-11T10:39:57.649Z,56.74
2022-08-11T10:40:57.563Z,56.54
2022-08-11T10:42:06.468Z,56.54
2022-08-11T10:42:58.301Z,56.81
2022-08-11T10:44:01.850Z,56.81
2022-08-11T10:44:57.532Z,56.71
2022-08-11T10:45:57.526Z,54.43
2022-08-11T10:46:57.515Z,54.33
2022-08-11T10:47:57.516Z,54.93
2022-08-11T10:48:57.528Z,55.25
2022-08-11T10:49:57.476Z,55.44
2022-08-11T10:50:57.478Z,54.65
2022-08-11T10:51:57.554Z,54.35
2022-08-11T10:52:57.446Z,54.46
2022-08-11T10:53:57.459Z,54.95
2022-08-11T10:54:57.444Z,55.15
2022-08-11T10:55:58.596Z,54.85
2022-08-11T10:56:57.423Z,55.55
2022-08-11T10:58:04.654Z,55.15
2022-08-11T10:58:59.632Z,54.46
2022-08-11T10:59:57.403Z,54.75
2022-08-11T11:00:57.421Z,55.25
2022-08-11T11:01:57.396Z,55.25
2022-08-11T11:03:16.734Z,55.74
2022-08-11T11:03:57.372Z,55.85
2022-08-11T11:04:57.340Z,54.65
2022-08-11T11:06:27.488Z,55.35
2022-08-11T11:06:57.350Z,55.44
2022-08-11T11:07:57.334Z,55.85
2022-08-11T11:09:01.505Z,55.85
2022-08-11T11:09:57.324Z,55.55
2022-08-11T11:10:57.299Z,54.95
2022-08-11T11:11:57.299Z,55.55
2022-08-11T11:12:57.299Z,55.25
2022-08-11T11:13:57.447Z,55.85
2022-08-11T11:14:59.121Z,55.35
2022-08-11T11:15:57.269Z,55.44
2022-08-11T11:16:57.237Z,54.16
2022-08-11T11:17:57.241Z,54.25
2022-08-11T11:19:00.795Z,55.25
2022-08-11T11:19:57.231Z,55.05
2022-08-11T11:20:57.199Z,55.05
2022-08-11T11:21:57.200Z,55.27
2022-08-11T11:22:57.180Z,55.47
2022-08-11T11:23:57.194Z,55.87
2022-08-11T11:24:57.273Z,55.65
2022-08-11T11:25:57.333Z,55.65
2022-08-11T11:26:57.164Z,55.55
2022-08-11T11:27:57.148Z,55.85
2022-08-11T11:28:57.145Z,56.14
2022-08-11T11:29:57.132Z,55.94
2022-08-11T11:30:57.133Z,55.85
2022-08-11T11:31:57.113Z,55.85
2022-08-11T11:32:57.115Z,56.04
2022-08-11T11:34:06.969Z,55.44
2022-08-11T11:34:57.086Z,55.44
2022-08-11T11:35:57.077Z,54.65
2022-08-11T11:36:57.086Z,54.95
2022-08-11T11:38:04.940Z,55.15
2022-08-11T11:38:57.056Z,54.65
2022-08-11T11:39:57.046Z,55.25
2022-08-11T11:40:57.048Z,55.44
2022-08-11T11:41:57.043Z,55.74
2022-08-11T11:42:57.100Z,55.74
2022-08-11T11:43:57.009Z,55.94
2022-08-11T11:44:59.427Z,56.14
2022-08-11T11:45:56.998Z,55.65
2022-08-11T11:46:56.980Z,55.85
2022-08-11T11:47:56.971Z,55.85
2022-08-11T11:48:56.997Z,55.55
2022-08-11T11:49:56.960Z,55.85
2022-08-11T11:50:58.625Z,56.04
2022-08-11T11:51:56.945Z,55.94
2022-08-11T11:52:56.922Z,56.24
2022-08-11T11:53:56.943Z,56.04
2022-08-11T11:54:56.948Z,54.85
2022-08-11T11:55:57.399Z,54.65
2022-08-11T11:56:57.725Z,54.75
2022-08-11T11:57:59.063Z,55.35
2022-08-11T11:58:56.890Z,55.55
2022-08-11T11:59:56.888Z,55.94
2022-08-11T12:00:56.880Z,55.94
2022-08-11T12:01:56.858Z,55.74
2022-08-11T12:02:56.880Z,55.74
2022-08-11T12:03:56.852Z,55.94
2022-08-11T12:04:56.832Z,55.74
2022-08-11T12:05:56.832Z,55.85
2022-08-11T12:06:56.821Z,55.25
2022-08-11T12:08:12.342Z,54.85
2022-08-11T12:08:56.804Z,55.35
2022-08-11T12:09:56.780Z,55.55
2022-08-11T12:10:56.785Z,55.55
2022-08-11T12:11:56.775Z,55.65
2022-08-11T12:12:56.774Z,55.55
2022-08-11T12:13:56.745Z,55.44
2022-08-11T12:14:56.751Z,55.55
2022-08-11T12:16:31.742Z,55.25
2022-08-11T12:16:56.745Z,55.25
2022-08-11T12:17:56.728Z,55.55
2022-08-11T12:18:56.717Z,55.85
2022-08-11T12:19:57.265Z,56.24
2022-08-11T12:20:56.684Z,56.14
2022-08-11T12:21:59.402Z,56.24
2022-08-11T12:22:56.681Z,56.44
2022-08-11T12:23:59.867Z,56.24
2022-08-11T12:24:56.672Z,56.34
2022-08-11T12:26:16.531Z,56.44
2022-08-11T12:27:15.935Z,55.22
2022-08-11T12:27:56.645Z,55.02
2022-08-11T12:28:56.618Z,55.52
2022-08-11T12:29:56.610Z,55.85
2022-08-11T12:30:56.625Z,55.72
2022-08-11T12:31:56.593Z,55.65
2022-08-11T12:32:56.596Z,55.15
2022-08-11T12:33:56.587Z,55.44
2022-08-11T12:34:56.564Z,55.05
2022-08-11T12:36:00.702Z,55.25
2022-08-11T12:36:56.564Z,55.44
2022-08-11T12:38:03.689Z,55.74
2022-08-11T12:38:56.526Z,55.44
2022-08-11T12:40:15.819Z,55.05
2022-08-11T12:41:14.945Z,55.05
2022-08-11T12:41:56.553Z,55.25
2022-08-11T12:42:56.566Z,55.55
2022-08-11T12:43:57.543Z,55.55
2022-08-11T12:44:56.480Z,55.25
2022-08-11T12:45:56.469Z,55.35
2022-08-11T12:46:56.458Z,55.25
2022-08-11T12:48:07.562Z,55.25
2022-08-11T12:49:00.283Z,55.55
2022-08-11T12:49:56.441Z,55.65
2022-08-11T12:50:56.422Z,55.55
2022-08-11T12:52:11.529Z,55.65